N961JF KARR-KTEB
Flight info
| Callsign | N961JF |
|---|---|
| Flight time | N/A |
| Altitude | 41000 |
| Route | DCT LEWKE DCT GIJ DCT EVOTE DCT NELLS DCT KEEHO DCT JHW LVZ5 |
| Aircraft | GLF5/M-SBDE2E3FGHIJ3J4J5P2RWXY/LB1D1 |
Departure
| Time | 2026-04-30 14:53 |
|---|---|
| Airport | Aurora Municipal Airport (KARR) |
Arrival
| Time | N/A |
|---|---|
| Airport | Teterboro Airport (KTEB) |
| Time | Latitude | Longitude | Altitude | Speed | Heading |
|---|---|---|---|---|---|
| 2026-04-30 14:41 | 41.76778 | -88.46918 | 716 ft | 0 kts | 180° |
| 2026-04-30 14:49 | 41.76743 | -88.46919 | 716 ft | 10 kts | 189° |
| 2026-04-30 14:50 | 41.76819 | -88.46968 | 716 ft | 9 kts | 9° |
| 2026-04-30 14:50 | 41.76874 | -88.46941 | 716 ft | 9 kts | 24° |
| 2026-04-30 14:51 | 41.76926 | -88.46666 | 716 ft | 19 kts | 89° |
| 2026-04-30 14:51 | 41.76929 | -88.46487 | 716 ft | 18 kts | 89° |
| 2026-04-30 14:51 | 41.76934 | -88.46197 | 716 ft | 6 kts | 80° |
| 2026-04-30 14:52 | 41.76963 | -88.46165 | 716 ft | 5 kts | 20° |
| 2026-04-30 14:52 | 41.77040 | -88.46182 | 716 ft | 4 kts | 293° |
| 2026-04-30 14:52 | 41.77042 | -88.46206 | 716 ft | 0 kts | 269° |
| 2026-04-30 14:53 | 41.77026 | -88.47401 | 758 ft | 157 kts | 270° |
| 2026-04-30 14:53 | 41.76804 | -88.48899 | 1790 ft | 177 kts | 248° |
| 2026-04-30 14:54 | 41.74427 | -88.50337 | 3691 ft | 246 kts | 171° |
| 2026-04-30 14:54 | 41.72117 | -88.46742 | 5960 ft | 287 kts | 100° |
| 2026-04-30 14:55 | 41.71498 | -88.41265 | 8715 ft | 307 kts | 97° |
| 2026-04-30 14:55 | 41.71458 | -88.38442 | 9992 ft | 314 kts | 82° |
| 2026-04-30 14:55 | 41.71803 | -88.30846 | 11758 ft | 381 kts | 83° |
| 2026-04-30 14:56 | 41.72042 | -88.24954 | 14108 ft | 391 kts | 82° |
| 2026-04-30 14:56 | 41.72337 | -88.17622 | 16625 ft | 407 kts | 83° |
| 2026-04-30 14:57 | 41.72490 | -88.13760 | 17858 ft | 415 kts | 83° |
| 2026-04-30 14:57 | 41.72794 | -88.05904 | 20185 ft | 435 kts | 84° |
| 2026-04-30 14:58 | 41.73110 | -87.97608 | 22399 ft | 456 kts | 84° |
| 2026-04-30 14:58 | 41.73269 | -87.93378 | 23475 ft | 465 kts | 84° |
| 2026-04-30 14:58 | 41.73597 | -87.84523 | 25479 ft | 484 kts | 84° |
| 2026-04-30 14:59 | 41.73929 | -87.75375 | 27334 ft | 501 kts | 84° |
| 2026-04-30 15:00 | 41.74435 | -87.60986 | 29753 ft | 527 kts | 85° |
| 2026-04-30 15:00 | 41.74777 | -87.50976 | 31338 ft | 538 kts | 85° |
| 2026-04-30 15:01 | 41.75106 | -87.41076 | 33118 ft | 533 kts | 85° |
| 2026-04-30 15:01 | 41.75268 | -87.36110 | 33824 ft | 533 kts | 85° |
| 2026-04-30 15:01 | 41.75585 | -87.26193 | 35344 ft | 530 kts | 86° |
| 2026-04-30 15:02 | 41.75738 | -87.21323 | 36065 ft | 528 kts | 86° |
| 2026-04-30 15:02 | 41.75891 | -87.16378 | 36738 ft | 526 kts | 86° |
| 2026-04-30 15:03 | 41.76255 | -87.01694 | 38686 ft | 523 kts | 88° |
| 2026-04-30 15:03 | 41.76360 | -86.92013 | 40104 ft | 519 kts | 88° |
| 2026-04-30 15:04 | 41.76463 | -86.82339 | 41102 ft | 525 kts | 88° |
| 2026-04-30 15:04 | 41.76606 | -86.67090 | 41105 ft | 552 kts | 88° |
| 2026-04-30 15:05 | 41.76730 | -86.51819 | 41092 ft | 541 kts | 88° |
| 2026-04-30 15:06 | 41.76801 | -86.41731 | 41099 ft | 541 kts | 88° |
| 2026-04-30 15:07 | 41.78587 | -86.21827 | 41083 ft | 539 kts | 75° |
| 2026-04-30 15:08 | 41.81949 | -86.02177 | 41085 ft | 538 kts | 75° |
| 2026-04-30 15:09 | 41.86092 | -85.77631 | 41076 ft | 538 kts | 75° |
| 2026-04-30 15:10 | 41.89357 | -85.58040 | 41073 ft | 537 kts | 75° |
| 2026-04-30 15:11 | 41.94195 | -85.28603 | 41065 ft | 537 kts | 76° |
| 2026-04-30 15:12 | 41.95078 | -85.13594 | 41053 ft | 539 kts | 90° |
| 2026-04-30 15:13 | 41.95050 | -85.03438 | 41056 ft | 540 kts | 90° |
| 2026-04-30 15:14 | 41.94875 | -84.68283 | 41050 ft | 539 kts | 90° |
| 2026-04-30 15:17 | 41.94490 | -84.22839 | 41038 ft | 537 kts | 91° |
| 2026-04-30 15:19 | 41.94003 | -83.82910 | 41039 ft | 535 kts | 91° |